Time;durP1;ratioP1;P1;durP2;ratioP2;P2;SDS_P1;SDS_P2;PMS_P1;PMS_P2;Temp;Humidity;BMP_temperature;BMP_pressure;BME280_temperature;BME280_humidity;BME280_pressure;Samples;Min_cycle;Max_cycle;Signal;HPM_P1;HPM_P2
2023/01/10 00:00:14;;;;;;;;;;;;;;;18.71;43.09;101151.19;7249842;19;153080;-57
2023/01/10 00:02:40;;;;;;;;;;;;;;;18.76;42.98;101159.50;7227682;19;154920;-57
2023/01/10 00:05:08;;;;;;;;;;;;;;;18.80;42.91;101171.81;7239544;19;153356;-57
2023/01/10 00:07:35;;;;;;;;;;;;;;;18.83;42.58;101176.00;7243034;19;153960;-57
2023/01/10 00:10:02;;;;;;;;;;;;;;;18.85;43.01;101168.97;7248537;19;155792;-58
2023/01/10 00:15:06;;;;;;;;;;;;;;;18.91;43.06;101178.16;7250700;19;154657;-58
2023/01/10 00:17:33;;;;;;;;;;;;;;;18.96;42.99;101181.75;7249433;19;153770;-58
2023/01/10 00:19:59;;;;;;;;;;;;;;;19.00;42.82;101171.66;7254920;19;153392;-58
2023/01/10 00:22:26;;;;;;;;;;;;;;;19.03;42.50;101164.63;7250718;19;154376;-58
2023/01/10 00:24:53;;;;;;;;;;;;;;;19.06;42.55;101173.28;7258986;19;154010;-57
2023/01/10 00:27:21;;;;;;;;;;;;;;;19.08;42.05;101170.16;7255377;19;153617;-57
2023/01/10 00:29:51;;;;;;;;;;;;;;;19.09;42.29;101181.09;7251299;19;153856;-58
2023/01/10 00:32:18;;;;;;;;;;;;;;;19.10;41.95;101171.56;7253360;19;153662;-58
2023/01/10 00:34:45;;;;;;;;;;;;;;;19.11;41.90;101180.81;7249127;19;153949;-58
2023/01/10 00:37:12;;;;;;;;;;;;;;;19.12;41.81;101190.03;7249451;19;154598;-58
2023/01/10 00:39:39;;;;;;;;;;;;;;;19.13;41.85;101197.28;7249495;19;153052;-58
2023/01/10 00:44:42;;;;;;;;;;;;;;;19.10;41.75;101191.16;7255417;19;154736;-57
2023/01/10 00:47:08;;;;;;;;;;;;;;;19.11;42.21;101192.00;7260489;19;153919;-58
2023/01/10 00:49:35;;;;;;;;;;;;;;;19.10;41.99;101196.78;7256292;19;153381;-57
2023/01/10 00:52:02;;;;;;;;;;;;;;;19.10;42.08;101198.72;7259187;19;154998;-57
2023/01/10 00:54:29;;;;;;;;;;;;;;;19.11;42.06;101203.22;7256775;19;154406;-57
2023/01/10 00:56:56;;;;;;;;;;;;;;;19.09;41.98;101206.28;7252706;19;153441;-58
2023/01/10 00:59:23;;;;;;;;;;;;;;;19.08;42.03;101203.78;7254647;19;155343;-58
2023/01/10 01:01:50;;;;;;;;;;;;;;;19.08;42.00;101206.56;7251288;19;155791;-58
2023/01/10 01:04:17;;;;;;;;;;;;;;;19.07;41.78;101211.38;7253855;19;154338;-58
2023/01/10 01:06:45;;;;;;;;;;;;;;;19.06;41.70;101203.25;7253371;19;154243;-58
2023/01/10 01:09:12;;;;;;;;;;;;;;;19.06;41.75;101209.69;7260877;19;154901;-58
2023/01/10 01:11:39;;;;;;;;;;;;;;;19.05;42.18;101209.97;7255557;19;153883;-58
2023/01/10 01:14:06;;;;;;;;;;;;;;;19.05;42.00;101207.16;7255085;19;153692;-58
2023/01/10 01:16:33;;;;;;;;;;;;;;;19.05;42.02;101216.41;7254075;19;154126;-58
2023/01/10 01:19:00;;;;;;;;;;;;;;;19.05;41.62;101213.63;7254944;19;153452;-57
2023/01/10 01:21:27;;;;;;;;;;;;;;;19.07;41.86;101222.56;7250441;19;155487;-57
2023/01/10 01:23:55;;;;;;;;;;;;;;;19.09;41.76;101217.50;7254490;19;153658;-58
2023/01/10 01:26:23;;;;;;;;;;;;;;;19.13;41.97;101214.94;7250606;19;154286;-58
2023/01/10 01:28:49;;;;;;;;;;;;;;;19.18;41.93;101216.88;7258286;19;153276;-58
2023/01/10 01:31:16;;;;;;;;;;;;;;;19.23;41.44;101214.03;7258023;19;153289;-57
2023/01/10 01:33:44;;;;;;;;;;;;;;;19.28;41.81;101212.03;7254946;19;155412;-58
2023/01/10 01:36:12;;;;;;;;;;;;;;;19.35;41.72;101217.31;7256241;19;154103;-57
2023/01/10 01:38:39;;;;;;;;;;;;;;;19.40;41.64;101220.03;7255943;19;154206;-57
2023/01/10 01:41:55;;;;;;;;;;;;;;;19.45;41.85;101211.59;7249933;19;153600;-58
2023/01/10 01:44:01;;;;;;;;;;;;;;;19.50;41.68;101217.16;7251064;19;153045;-58
2023/01/10 01:46:28;;;;;;;;;;;;;;;19.54;41.51;101230.28;7251020;19;154163;-57
2023/01/10 01:48:55;;;;;;;;;;;;;;;19.59;41.57;101232.22;7252335;19;153573;-58
2023/01/10 01:51:25;;;;;;;;;;;;;;;19.64;41.84;101236.94;7255812;19;153172;-58
2023/01/10 01:53:56;;;;;;;;;;;;;;;19.68;41.38;101227.63;7250727;19;155414;-57
2023/01/10 01:56:33;;;;;;;;;;;;;;;19.72;41.64;101225.91;7253701;19;153193;-58
2023/01/10 01:59:10;;;;;;;;;;;;;;;19.77;41.43;101217.44;7254419;19;153118;-58
2023/01/10 02:01:37;;;;;;;;;;;;;;;19.81;41.65;101212.91;7250516;19;153493;-57
2023/01/10 02:04:08;;;;;;;;;;;;;;;19.85;41.39;101216.78;7250345;19;153602;-58
2023/01/10 02:06:36;;;;;;;;;;;;;;;19.91;41.62;101220.38;7250570;19;153586;-57
2023/01/10 02:09:15;;;;;;;;;;;;;;;19.93;42.01;101224.59;7250170;19;155715;-58
2023/01/10 02:11:41;;;;;;;;;;;;;;;20.02;42.19;101221.94;7251085;19;151944;-58
2023/01/10 02:14:09;;;;;;;;;;;;;;;20.06;42.27;101225.81;7260456;19;153955;-58
2023/01/10 02:16:35;;;;;;;;;;;;;;;20.11;42.60;101225.78;7254885;19;153463;-58
2023/01/10 02:19:07;;;;;;;;;;;;;;;20.15;42.41;101224.03;7255136;19;153945;-58
2023/01/10 02:21:35;;;;;;;;;;;;;;;20.19;42.61;101235.50;7250556;19;154300;-58
2023/01/10 02:24:12;;;;;;;;;;;;;;;20.23;42.97;101248.63;7252333;19;153353;-58
2023/01/10 02:26:46;;;;;;;;;;;;;;;20.27;42.66;101254.47;7254204;19;153555;-58
2023/01/10 02:29:14;;;;;;;;;;;;;;;20.31;42.67;101255.56;7251199;19;153681;-58
2023/01/10 02:31:50;;;;;;;;;;;;;;;20.36;42.82;101258.31;7250990;19;153579;-58
2023/01/10 02:34:26;;;;;;;;;;;;;;;20.39;43.07;101250.16;7252577;19;153797;-58
2023/01/10 02:37:02;;;;;;;;;;;;;;;20.42;43.15;101260.75;7257910;19;153791;-58
2023/01/10 02:39:35;;;;;;;;;;;;;;;20.47;42.97;101259.03;7251002;19;156047;-58
2023/01/10 02:42:11;;;;;;;;;;;;;;;20.50;43.15;101264.88;7251994;19;155129;-58
2023/01/10 02:44:39;;;;;;;;;;;;;;;20.54;43.16;101267.91;7251279;19;152318;-58
2023/01/10 02:47:07;;;;;;;;;;;;;;;20.57;43.04;101270.97;7253181;19;155527;-58
2023/01/10 02:49:44;;;;;;;;;;;;;;;20.60;43.12;101263.91;7248832;19;153332;-58
2023/01/10 02:52:13;;;;;;;;;;;;;;;20.63;43.21;101266.94;7249581;19;153898;-58
2023/01/10 02:54:40;;;;;;;;;;;;;;;20.67;42.93;101256.75;7250073;19;155174;-58
2023/01/10 02:57:08;;;;;;;;;;;;;;;20.71;43.10;101263.47;7249793;19;153257;-58
2023/01/10 02:59:45;;;;;;;;;;;;;;;20.73;43.29;101265.97;7257283;19;154201;-58
2023/01/10 03:02:13;;;;;;;;;;;;;;;20.77;43.34;101275.44;7249657;19;154391;-58
2023/01/10 03:04:52;;;;;;;;;;;;;;;20.81;43.12;101268.09;7249914;19;154678;-58
2023/01/10 03:07:27;;;;;;;;;;;;;;;20.84;42.89;101278.75;7246094;19;153416;-58
2023/01/10 03:10:04;;;;;;;;;;;;;;;20.86;42.95;101271.66;7250324;19;153959;-58
2023/01/10 03:12:36;;;;;;;;;;;;;;;20.91;43.06;101270.75;7252694;19;154715;-58
2023/01/10 03:15:05;;;;;;;;;;;;;;;20.95;43.29;101254.97;7250241;19;154236;-58
2023/01/10 03:17:32;;;;;;;;;;;;;;;20.98;43.45;101261.97;7252265;19;154649;-58
2023/01/10 03:20:01;;;;;;;;;;;;;;;21.02;43.35;101260.22;7249570;19;153589;-58
2023/01/10 03:22:29;;;;;;;;;;;;;;;21.04;43.30;101258.75;7253213;19;154803;-58
2023/01/10 03:24:58;;;;;;;;;;;;;;;21.08;43.13;101253.34;7252165;19;153111;-58
2023/01/10 03:27:32;;;;;;;;;;;;;;;21.09;43.02;101253.06;7252882;19;153700;-58
2023/01/10 03:30:03;;;;;;;;;;;;;;;21.11;43.08;101250.78;7251715;19;154089;-58
2023/01/10 03:32:30;;;;;;;;;;;;;;;21.15;43.03;101251.88;7254717;19;153546;-58
2023/01/10 03:34:59;;;;;;;;;;;;;;;21.18;43.04;101247.63;7252825;19;153695;-58
2023/01/10 03:37:35;;;;;;;;;;;;;;;21.21;42.81;101238.59;7243470;19;154023;-58
2023/01/10 03:40:11;;;;;;;;;;;;;;;21.22;42.95;101232.66;7250903;19;154472;-58
2023/01/10 03:45:27;;;;;;;;;;;;;;;21.26;42.68;101227.25;7261410;19;153211;-58
2023/01/10 03:47:55;;;;;;;;;;;;;;;21.29;42.31;101221.03;7260342;19;154851;-58
2023/01/10 03:50:23;;;;;;;;;;;;;;;21.29;42.37;101221.88;7255298;19;154718;-58
2023/01/10 03:52:50;;;;;;;;;;;;;;;21.32;42.71;101225.19;7255106;19;154872;-58
2023/01/10 03:55:19;;;;;;;;;;;;;;;21.35;42.19;101222.59;7256655;19;153228;-57
2023/01/10 03:57:46;;;;;;;;;;;;;;;21.35;42.82;101207.72;7255813;19;153573;-58
2023/01/10 04:00:13;;;;;;;;;;;;;;;21.37;42.49;101200.66;7259885;19;153427;-58
2023/01/10 04:02:40;;;;;;;;;;;;;;;21.39;42.69;101204.00;7257375;19;153763;-58
2023/01/10 04:05:08;;;;;;;;;;;;;;;21.41;42.52;101203.66;7263290;19;154094;-58
2023/01/10 04:07:35;;;;;;;;;;;;;;;21.42;42.59;101199.72;7254595;19;153350;-58
2023/01/10 04:10:03;;;;;;;;;;;;;;;21.41;42.67;101204.50;7253454;19;154620;-58
2023/01/10 04:12:30;;;;;;;;;;;;;;;21.40;42.86;101199.19;7255617;19;154072;-59
2023/01/10 04:14:57;;;;;;;;;;;;;;;21.42;42.83;101200.56;7254599;19;152184;-58
2023/01/10 04:17:23;;;;;;;;;;;;;;;21.39;42.60;101200.34;7256609;19;155054;-58
2023/01/10 04:19:50;;;;;;;;;;;;;;;21.40;42.85;101202.81;7257106;19;154529;-58
2023/01/10 04:22:17;;;;;;;;;;;;;;;21.37;42.64;101211.03;7255115;19;153776;-58
2023/01/10 04:24:45;;;;;;;;;;;;;;;21.34;42.58;101220.09;7252016;19;154128;-58
2023/01/10 04:27:12;;;;;;;;;;;;;;;21.30;42.59;101211.47;7265096;19;153610;-58
2023/01/10 04:29:39;;;;;;;;;;;;;;;21.29;42.80;101210.63;7255322;19;154438;-58
2023/01/10 04:32:06;;;;;;;;;;;;;;;21.26;42.59;101201.94;7256642;19;153828;-58
2023/01/10 04:34:33;;;;;;;;;;;;;;;21.23;42.84;101194.16;7254487;19;152817;-58
2023/01/10 04:36:59;;;;;;;;;;;;;;;21.21;43.12;101188.00;7253055;19;155086;-58
2023/01/10 04:39:26;;;;;;;;;;;;;;;21.18;43.33;101189.44;7253932;19;152564;-58
2023/01/10 04:41:53;;;;;;;;;;;;;;;21.15;43.33;101187.25;7256962;19;155485;-59
2023/01/10 04:44:20;;;;;;;;;;;;;;;21.13;43.35;101183.91;7253262;19;154380;-59
2023/01/10 04:46:46;;;;;;;;;;;;;;;21.12;43.48;101181.38;7253850;19;153190;-59
2023/01/10 04:49:13;;;;;;;;;;;;;;;21.10;43.58;101176.06;7260997;19;153115;-59
2023/01/10 04:51:40;;;;;;;;;;;;;;;21.08;44.00;101180.31;7254517;19;153414;-59
2023/01/10 04:54:07;;;;;;;;;;;;;;;21.05;43.86;101164.06;7255028;19;154398;-59
2023/01/10 04:56:33;;;;;;;;;;;;;;;21.02;43.95;101168.34;7252416;19;153673;-59
2023/01/10 04:59:00;;;;;;;;;;;;;;;21.00;44.10;101166.97;7256565;19;154015;-59
2023/01/10 05:01:27;;;;;;;;;;;;;;;20.95;44.20;101153.00;7257371;19;153204;-59
2023/01/10 05:03:54;;;;;;;;;;;;;;;20.91;44.15;101149.97;7254743;19;154876;-56
2023/01/10 05:06:22;;;;;;;;;;;;;;;20.89;44.33;101146.66;7252163;19;154250;-58
2023/01/10 05:08:49;;;;;;;;;;;;;;;20.86;44.36;101142.47;7253682;19;153161;-58
2023/01/10 05:11:15;;;;;;;;;;;;;;;20.84;44.47;101136.34;7256292;19;154502;-58
2023/01/10 05:13:42;;;;;;;;;;;;;;;20.82;44.63;101137.78;7255338;19;153677;-59
2023/01/10 05:16:11;;;;;;;;;;;;;;;20.79;44.76;101142.03;7251159;19;154021;-58
2023/01/10 05:18:38;;;;;;;;;;;;;;;20.77;45.15;101144.31;7254166;19;153135;-59
2023/01/10 05:21:06;;;;;;;;;;;;;;;20.74;45.28;101138.47;7251976;19;154799;-58
2023/01/10 05:23:33;;;;;;;;;;;;;;;20.72;45.12;101152.81;7249745;19;154061;-59
2023/01/10 05:26:04;;;;;;;;;;;;;;;20.69;45.01;101147.81;7252189;19;153250;-59
2023/01/10 05:28:31;;;;;;;;;;;;;;;20.67;45.48;101152.06;7250952;19;152773;-58
2023/01/10 05:30:57;;;;;;;;;;;;;;;20.63;45.34;101151.81;7250142;19;153854;-59
2023/01/10 05:33:24;;;;;;;;;;;;;;;20.62;45.58;101154.97;7262400;19;153227;-59
2023/01/10 05:35:51;;;;;;;;;;;;;;;20.58;45.70;101153.91;7251016;19;154146;-59
2023/01/10 05:38:18;;;;;;;;;;;;;;;20.57;45.53;101149.41;7250578;19;151878;-58
2023/01/10 05:40:44;;;;;;;;;;;;;;;20.53;45.78;101137.97;7254156;19;154077;-58
2023/01/10 05:43:11;;;;;;;;;;;;;;;20.53;45.72;101135.16;7256235;19;153856;-59
2023/01/10 05:45:38;;;;;;;;;;;;;;;20.51;45.97;101129.00;7258677;19;154159;-59
2023/01/10 05:48:05;;;;;;;;;;;;;;;20.49;45.80;101130.47;7253660;19;154217;-59
2023/01/10 05:50:32;;;;;;;;;;;;;;;20.46;46.10;101126.28;7249543;19;155543;-59
2023/01/10 05:53:02;;;;;;;;;;;;;;;20.45;45.87;101123.75;7262985;19;153831;-58
2023/01/10 05:55:29;;;;;;;;;;;;;;;20.41;46.11;101121.56;7254849;19;154058;-58
2023/01/10 05:57:56;;;;;;;;;;;;;;;20.39;46.24;101126.66;7256948;19;153221;-58
2023/01/10 06:00:23;;;;;;;;;;;;;;;20.36;45.77;101110.41;7254408;19;153802;-58
2023/01/10 06:02:53;;;;;;;;;;;;;;;20.34;46.04;101112.72;7250511;19;154976;-58
2023/01/10 06:05:20;;;;;;;;;;;;;;;20.31;45.96;101113.28;7251881;19;153534;-58
2023/01/10 06:07:46;;;;;;;;;;;;;;;20.29;46.32;101103.50;7250277;19;154645;-58
2023/01/10 06:10:13;;;;;;;;;;;;;;;20.27;46.41;101097.34;7245824;19;156034;-58
2023/01/10 06:12:40;;;;;;;;;;;;;;;20.25;46.59;101092.03;7252972;19;152747;-59
2023/01/10 06:15:08;;;;;;;;;;;;;;;20.22;46.63;101073.00;7255414;19;154440;-58
2023/01/10 06:17:34;;;;;;;;;;;;;;;20.24;46.44;101072.69;7253713;19;152132;-58
2023/01/10 06:20:01;;;;;;;;;;;;;;;20.24;47.00;101073.53;7250710;19;154087;-58
2023/01/10 06:22:28;;;;;;;;;;;;;;;20.25;46.67;101065.97;7249118;19;155134;-58
2023/01/10 06:24:55;;;;;;;;;;;;;;;20.28;47.04;101066.19;7251279;19;153278;-58
2023/01/10 06:27:22;;;;;;;;;;;;;;;20.31;46.75;101059.97;7250755;19;154626;-58
2023/01/10 06:29:48;;;;;;;;;;;;;;;20.35;46.81;101057.41;7250488;19;153066;-58
2023/01/10 06:32:15;;;;;;;;;;;;;;;20.40;47.16;101049.72;7250765;19;153926;-58
2023/01/10 06:34:42;;;;;;;;;;;;;;;20.47;46.96;101054.97;7253411;19;154193;-58
2023/01/10 06:37:09;;;;;;;;;;;;;;;20.54;47.33;101052.59;7257435;19;155873;-59
2023/01/10 06:39:36;;;;;;;;;;;;;;;20.60;47.10;101053.34;7250608;19;154764;-59
2023/01/10 06:42:02;;;;;;;;;;;;;;;20.65;47.43;101056.06;7250178;19;156032;-59
2023/01/10 06:44:29;;;;;;;;;;;;;;;20.67;47.37;101049.00;7251001;19;152729;-59
2023/01/10 06:46:56;;;;;;;;;;;;;;;20.72;46.95;101046.09;7254504;19;155347;-58
2023/01/10 06:49:23;;;;;;;;;;;;;;;20.76;47.01;101040.69;7248517;19;153227;-59
2023/01/10 06:51:50;;;;;;;;;;;;;;;20.78;47.42;101042.06;7247160;19;153585;-57
2023/01/10 06:54:16;;;;;;;;;;;;;;;20.83;47.70;101036.38;7250612;19;154200;-57
2023/01/10 06:56:45;;;;;;;;;;;;;;;20.85;47.65;101033.25;7251681;19;153922;-59
2023/01/10 06:59:12;;;;;;;;;;;;;;;20.90;47.19;101026.69;7258220;19;153138;-59
2023/01/10 07:01:39;;;;;;;;;;;;;;;20.92;47.71;101035.66;7251004;19;155942;-59
2023/01/10 07:04:06;;;;;;;;;;;;;;;20.95;47.52;101035.03;7250332;19;151977;-57
2023/01/10 07:06:36;;;;;;;;;;;;;;;20.97;47.31;101024.34;7247768;19;154167;-59
2023/01/10 07:09:04;;;;;;;;;;;;;;;21.02;47.69;101021.44;7250022;19;154843;-57
2023/01/10 07:11:32;;;;;;;;;;;;;;;21.05;47.58;101018.00;7249663;19;154081;-57
2023/01/10 07:13:59;;;;;;;;;;;;;;;21.09;47.71;101008.63;7251804;19;154600;-57
2023/01/10 07:16:26;;;;;;;;;;;;;;;21.13;47.59;101004.09;7249973;19;153315;-57
2023/01/10 07:18:53;;;;;;;;;;;;;;;21.17;47.49;101002.31;7250546;19;153398;-57
2023/01/10 07:21:20;;;;;;;;;;;;;;;21.21;47.65;100996.94;7253579;19;153604;-58
2023/01/10 07:23:48;;;;;;;;;;;;;;;21.23;47.12;100995.47;7249417;19;153984;-58
2023/01/10 07:26:17;;;;;;;;;;;;;;;21.29;47.30;100993.38;7247390;19;154106;-58
2023/01/10 07:28:49;;;;;;;;;;;;;;;21.33;47.56;100991.59;7249507;19;154289;-58
2023/01/10 07:31:17;;;;;;;;;;;;;;;21.36;47.74;100988.16;7250120;19;154213;-57
2023/01/10 07:33:44;;;;;;;;;;;;;;;21.38;47.60;100980.25;7250355;19;154047;-57
2023/01/10 07:36:11;;;;;;;;;;;;;;;21.42;47.18;100975.69;7246999;19;154130;-58
2023/01/10 07:38:38;;;;;;;;;;;;;;;21.46;47.68;100976.72;7250939;19;153192;-58
2023/01/10 07:41:05;;;;;;;;;;;;;;;21.49;47.56;100970.44;7250935;19;153407;-58
2023/01/10 07:43:32;;;;;;;;;;;;;;;21.52;47.52;100960.56;7254785;19;154421;-58
2023/01/10 07:46:00;;;;;;;;;;;;;;;21.55;47.19;100960.75;7250449;19;153483;-57
2023/01/10 07:48:28;;;;;;;;;;;;;;;21.58;47.38;100957.31;7251113;19;154308;-59
2023/01/10 07:50:56;;;;;;;;;;;;;;;21.62;47.21;100955.53;7246382;19;154316;-58
2023/01/10 07:53:23;;;;;;;;;;;;;;;21.65;47.42;100951.28;7250220;19;152593;-58
2023/01/10 07:55:50;;;;;;;;;;;;;;;21.68;47.08;100943.03;7246222;19;153705;-58
2023/01/10 07:58:17;;;;;;;;;;;;;;;21.69;47.32;100930.63;7248060;19;154111;-58
2023/01/10 08:00:45;;;;;;;;;;;;;;;21.73;47.07;100936.44;7248992;19;153284;-57
2023/01/10 08:03:12;;;;;;;;;;;;;;;21.77;47.20;100925.41;7256216;19;154865;-59
2023/01/10 08:05:39;;;;;;;;;;;;;;;21.79;47.17;100911.84;7248913;19;154259;-57
2023/01/10 08:08:08;;;;;;;;;;;;;;;21.76;46.39;100892.81;7246503;19;153764;-57
2023/01/10 08:10:35;;;;;;;;;;;;;;;21.78;46.71;100902.59;7245166;19;152673;-58
2023/01/10 08:13:02;;;;;;;;;;;;;;;21.81;46.33;100901.94;7250102;19;153968;-58
2023/01/10 08:15:45;;;;;;;;;;;;;;;21.84;46.42;100892.06;7247898;19;153435;-57
2023/01/10 08:18:13;;;;;;;;;;;;;;;21.85;46.01;100888.91;7250984;19;153428;-57
2023/01/10 08:20:40;;;;;;;;;;;;;;;21.88;46.14;100888.28;7245329;19;154242;-58
2023/01/10 08:23:06;;;;;;;;;;;;;;;21.92;46.10;100888.47;7246804;19;152225;-59
2023/01/10 08:25:33;;;;;;;;;;;;;;;21.93;45.89;100876.94;7254694;19;153555;-59
2023/01/10 08:28:00;;;;;;;;;;;;;;;21.95;45.81;100882.22;7244719;19;154926;-59
2023/01/10 08:30:28;;;;;;;;;;;;;;;21.98;45.93;100875.97;7248314;19;155316;-59
2023/01/10 08:32:55;;;;;;;;;;;;;;;22.00;45.26;100868.03;7254017;19;155041;-59
2023/01/10 08:35:21;;;;;;;;;;;;;;;22.01;45.13;100855.63;7254151;19;155139;-57
2023/01/10 08:37:48;;;;;;;;;;;;;;;22.01;45.27;100858.44;7254093;19;154395;-57
2023/01/10 08:40:15;;;;;;;;;;;;;;;22.00;45.34;100854.78;7254764;19;152836;-58
2023/01/10 08:42:42;;;;;;;;;;;;;;;22.01;45.32;100842.41;7253622;19;153674;-58
2023/01/10 08:45:09;;;;;;;;;;;;;;;22.00;45.32;100843.53;7255586;19;154802;-58
2023/01/10 08:47:36;;;;;;;;;;;;;;;21.97;45.17;100830.13;7260415;19;153891;-59
2023/01/10 08:50:04;;;;;;;;;;;;;;;21.96;44.96;100824.81;7256747;19;154493;-59
2023/01/10 08:52:33;;;;;;;;;;;;;;;21.93;44.70;100828.28;7250186;19;154279;-58
2023/01/10 08:55:00;;;;;;;;;;;;;;;21.87;44.68;100819.09;7254437;19;154304;-58
2023/01/10 08:57:27;;;;;;;;;;;;;;;21.84;44.90;100813.28;7255816;19;153976;-58
2023/01/10 08:59:54;;;;;;;;;;;;;;;21.81;44.73;100819.53;7256010;19;153763;-58
2023/01/10 09:02:21;;;;;;;;;;;;;;;21.79;44.80;100811.44;7254188;19;155373;-59
2023/01/10 09:04:48;;;;;;;;;;;;;;;21.75;45.26;100810.44;7256960;19;153318;-59
2023/01/10 09:07:15;;;;;;;;;;;;;;;21.74;45.22;100803.13;7251554;19;153520;-59
2023/01/10 09:09:42;;;;;;;;;;;;;;;21.71;45.50;100795.34;7260468;19;155756;-59
2023/01/10 09:14:45;;;;;;;;;;;;;;;21.66;45.24;100793.50;7251919;19;154478;-59
2023/01/10 09:17:12;;;;;;;;;;;;;;;21.64;45.45;100784.53;7255851;19;154212;-59
2023/01/10 09:19:40;;;;;;;;;;;;;;;21.63;45.60;100791.31;7255722;19;154405;-59
2023/01/10 09:22:06;;;;;;;;;;;;;;;21.60;45.65;100779.88;7253339;19;154622;-59
2023/01/10 09:24:34;;;;;;;;;;;;;;;21.58;45.77;100783.00;7253782;19;154026;-59
2023/01/10 09:27:01;;;;;;;;;;;;;;;21.55;45.96;100778.03;7254428;19;153270;-58
2023/01/10 09:29:28;;;;;;;;;;;;;;;21.53;46.14;100777.50;7252332;19;154354;-59
2023/01/10 09:31:55;;;;;;;;;;;;;;;21.49;46.26;100765.22;7262629;19;154129;-58
2023/01/10 09:34:23;;;;;;;;;;;;;;;21.46;46.11;100746.19;7253979;19;154288;-58
2023/01/10 09:36:51;;;;;;;;;;;;;;;21.42;45.99;100739.56;7252488;19;153750;-58
2023/01/10 09:39:20;;;;;;;;;;;;;;;21.40;45.89;100755.06;7254227;19;154865;-59
2023/01/10 09:41:56;;;;;;;;;;;;;;;21.36;46.35;100743.63;7250050;19;155850;-59
2023/01/10 09:44:24;;;;;;;;;;;;;;;21.33;46.42;100751.88;7252357;19;154059;-60
2023/01/10 09:46:51;;;;;;;;;;;;;;;21.29;46.27;100737.66;7254230;19;152560;-59
2023/01/10 09:49:25;;;;;;;;;;;;;;;21.25;46.36;100745.06;7249022;19;153078;-59
2023/01/10 09:51:55;;;;;;;;;;;;;;;21.21;46.29;100739.22;7258902;19;153703;-59
2023/01/10 09:54:27;;;;;;;;;;;;;;;21.18;46.56;100751.09;7249329;19;154042;-59
2023/01/10 09:56:54;;;;;;;;;;;;;;;21.16;46.43;100732.91;7254508;19;153670;-59
2023/01/10 09:59:23;;;;;;;;;;;;;;;21.13;46.26;100731.56;7252401;19;154547;-59
2023/01/10 10:01:53;;;;;;;;;;;;;;;21.11;46.53;100727.38;7252757;19;153345;-59
2023/01/10 10:04:32;;;;;;;;;;;;;;;21.06;46.16;100728.34;7250144;19;152799;-59
2023/01/10 10:06:59;;;;;;;;;;;;;;;21.04;46.63;100718.56;7251989;19;154259;-59
2023/01/10 10:09:28;;;;;;;;;;;;;;;21.00;46.67;100720.34;7250097;19;155664;-59
2023/01/10 10:12:05;;;;;;;;;;;;;;;20.98;46.62;100714.22;7254183;19;152886;-59
2023/01/10 10:14:52;;;;;;;;;;;;;;;20.95;46.92;100707.25;7258043;19;156596;-59
2023/01/10 10:17:28;;;;;;;;;;;;;;;20.91;47.02;100700.59;7251056;19;153580;-59
2023/01/10 10:19:56;;;;;;;;;;;;;;;20.88;46.60;100694.78;7253233;19;153710;-59
2023/01/10 10:22:33;;;;;;;;;;;;;;;20.85;46.90;100697.06;7249972;19;155716;-59
2023/01/10 10:25:13;;;;;;;;;;;;;;;20.83;46.93;100678.91;7251250;19;154287;-59
2023/01/10 10:27:50;;;;;;;;;;;;;;;20.80;47.17;100680.34;7250947;19;154545;-59
2023/01/10 10:30:30;;;;;;;;;;;;;;;20.77;47.25;100664.16;7252199;19;153914;-59
2023/01/10 10:33:00;;;;;;;;;;;;;;;20.74;47.66;100666.75;7256142;19;153676;-59
2023/01/10 10:35:37;;;;;;;;;;;;;;;20.71;47.56;100658.97;7250035;19;152879;-59
2023/01/10 10:38:09;;;;;;;;;;;;;;;20.69;47.80;100650.03;7257224;19;153583;-59
2023/01/10 10:40:38;;;;;;;;;;;;;;;20.66;47.41;100617.81;7250556;19;152730;-59
2023/01/10 10:43:17;;;;;;;;;;;;;;;20.64;47.70;100622.06;7251421;19;154169;-58
2023/01/10 10:45:46;;;;;;;;;;;;;;;20.61;47.68;100615.13;7251693;19;152744;-59
2023/01/10 10:48:23;;;;;;;;;;;;;;;20.58;48.10;100604.50;7249834;19;153874;-58
2023/01/10 10:50:57;;;;;;;;;;;;;;;20.56;47.97;100606.00;7249568;19;153382;-58
2023/01/10 10:53:24;;;;;;;;;;;;;;;20.54;48.16;100603.50;7247495;19;154362;-59
2023/01/10 10:55:52;;;;;;;;;;;;;;;20.52;48.22;100596.56;7251726;19;152903;-58
2023/01/10 10:58:19;;;;;;;;;;;;;;;20.50;48.18;100590.41;7250292;19;153987;-57
2023/01/10 11:00:46;;;;;;;;;;;;;;;20.46;48.37;100590.22;7256001;19;153403;-58
2023/01/10 11:03:15;;;;;;;;;;;;;;;20.44;48.41;100577.66;7248719;19;155989;-57
2023/01/10 11:05:43;;;;;;;;;;;;;;;20.41;48.27;100560.31;7250955;19;153290;-58
2023/01/10 11:08:12;;;;;;;;;;;;;;;20.39;48.33;100562.63;7248619;19;156100;-57
2023/01/10 11:10:41;;;;;;;;;;;;;;;20.38;48.09;100551.69;7248892;19;154075;-57
2023/01/10 11:13:11;;;;;;;;;;;;;;;20.36;48.26;100539.94;7248844;19;152527;-57
2023/01/10 11:15:41;;;;;;;;;;;;;;;20.34;48.69;100542.25;7251618;19;153711;-57
2023/01/10 11:18:17;;;;;;;;;;;;;;;20.30;48.81;100516.81;7248347;19;154827;-57
2023/01/10 11:20:46;;;;;;;;;;;;;;;20.28;48.96;100505.03;7247546;19;153166;-57
2023/01/10 11:23:22;;;;;;;;;;;;;;;20.27;48.70;100496.94;7256232;19;155952;-57
2023/01/10 11:25:50;;;;;;;;;;;;;;;20.24;48.57;100500.38;7249204;19;153954;-57
2023/01/10 11:28:21;;;;;;;;;;;;;;;20.23;48.85;100479.09;7248791;19;154921;-57
2023/01/10 11:30:49;;;;;;;;;;;;;;;20.19;48.52;100484.50;7248199;19;153930;-57
2023/01/10 11:33:19;;;;;;;;;;;;;;;20.17;48.52;100460.75;7252113;19;153888;-57
2023/01/10 11:35:55;;;;;;;;;;;;;;;20.15;48.96;100475.06;7247846;19;153480;-57
2023/01/10 11:38:23;;;;;;;;;;;;;;;20.13;48.81;100465.28;7246795;19;154089;-57
2023/01/10 11:40:53;;;;;;;;;;;;;;;20.11;48.94;100470.41;7248581;19;151986;-57
2023/01/10 11:43:27;;;;;;;;;;;;;;;20.07;48.85;100453.41;7249465;19;155263;-57
2023/01/10 11:45:58;;;;;;;;;;;;;;;20.06;48.68;100436.88;7231783;19;154541;-57
2023/01/10 11:48:25;;;;;;;;;;;;;;;20.02;48.64;100439.50;7242493;19;153923;-57
2023/01/10 11:51:16;;;;;;;;;;;;;;;19.98;48.78;100444.91;7246474;19;155650;-57
2023/01/10 11:53:44;;;;;;;;;;;;;;;19.96;48.78;100438.78;7250180;19;153607;-57
2023/01/10 11:56:13;;;;;;;;;;;;;;;19.94;48.73;100432.66;7252112;19;154201;-57
2023/01/10 11:58:40;;;;;;;;;;;;;;;19.92;49.16;100423.75;7250669;19;152751;-57
2023/01/10 12:01:24;;;;;;;;;;;;;;;19.90;48.96;100414.81;7251900;19;152789;-57
2023/01/10 12:03:51;;;;;;;;;;;;;;;19.89;49.15;100420.75;7252929;19;153989;-57
2023/01/10 12:06:19;;;;;;;;;;;;;;;19.86;49.17;100404.53;7263910;19;153797;-57
2023/01/10 12:08:46;;;;;;;;;;;;;;;19.84;49.00;100401.25;7261002;19;154929;-58
2023/01/10 12:11:14;;;;;;;;;;;;;;;19.82;48.92;100401.56;7255759;19;155933;-57
2023/01/10 12:13:43;;;;;;;;;;;;;;;19.81;49.05;100377.47;7263816;19;153768;-57
2023/01/10 12:16:21;;;;;;;;;;;;;;;19.83;48.26;100394.81;7257592;19;154350;-57
2023/01/10 12:19:00;;;;;;;;;;;;;;;19.81;47.96;100383.06;7261447;19;155027;-57
2023/01/10 12:21:31;;;;;;;;;;;;;;;19.80;48.36;100375.81;7257115;19;154180;-56
2023/01/10 12:24:01;;;;;;;;;;;;;;;19.82;48.33;100369.88;7258364;19;153722;-57
2023/01/10 12:26:29;;;;;;;;;;;;;;;19.80;48.31;100364.63;7260097;19;153975;-57
2023/01/10 12:28:58;;;;;;;;;;;;;;;19.82;48.18;100367.91;7265702;19;154278;-57
2023/01/10 12:31:27;;;;;;;;;;;;;;;19.83;48.72;100349.94;7259440;19;155000;-56
2023/01/10 12:33:58;;;;;;;;;;;;;;;19.85;48.45;100341.22;7261874;19;153350;-57
2023/01/10 12:36:25;;;;;;;;;;;;;;;19.87;48.80;100325.75;7258403;19;153981;-57
2023/01/10 12:39:02;;;;;;;;;;;;;;;19.90;48.66;100330.69;7259308;19;154159;-57
2023/01/10 12:44:14;;;;;;;;;;;;;;;19.95;48.60;100316.53;7261386;19;154341;-57
2023/01/10 12:46:48;;;;;;;;;;;;;;;20.01;48.65;100305.19;7267849;19;153139;-57
2023/01/10 12:49:45;;;;;;;;;;;;;;;20.05;49.18;100317.44;7260467;19;153882;-57